Time;durP1;ratioP1;P1;durP2;ratioP2;P2;SDS_P1;SDS_P2;PMS_P1;PMS_P2;Temp;Humidity;BMP_temperature;BMP_pressure;BME280_temperature;BME280_humidity;BME280_pressure;Samples;Min_cycle;Max_cycle;Signal;HPM_P1;HPM_P2
2021/03/21 00:01:05;;;;;;;36.50;23.17;;;0.80;99.90;;;;;;5094418;28;20605;-67
2021/03/21 00:03:31;;;;;;;35.58;23.75;;;0.70;99.90;;;;;;5093869;28;20477;-68
2021/03/21 00:05:57;;;;;;;34.93;23.20;;;0.70;99.90;;;;;;5093908;28;20659;-68
2021/03/21 00:08:26;;;;;;;36.70;24.10;;;0.70;99.90;;;;;;5093928;28;20539;-67
2021/03/21 00:10:55;;;;;;;37.50;24.42;;;0.70;99.90;;;;;;5094139;28;20164;-66
2021/03/21 00:13:22;;;;;;;33.72;22.80;;;0.70;99.90;;;;;;5094023;28;20196;-66
2021/03/21 00:15:49;;;;;;;41.90;26.15;;;0.60;99.90;;;;;;5092609;28;20207;-66
2021/03/21 00:18:15;;;;;;;35.10;24.65;;;0.70;99.90;;;;;;5093871;28;20196;-66
2021/03/21 00:20:41;;;;;;;36.50;23.55;;;0.70;99.90;;;;;;5093768;28;20168;-67
2021/03/21 00:23:07;;;;;;;36.43;24.07;;;0.60;99.90;;;;;;5093805;28;20212;-67
2021/03/21 00:25:34;;;;;;;36.78;24.10;;;0.60;99.90;;;;;;5093853;28;20176;-66
2021/03/21 00:28:01;;;;;;;38.35;25.08;;;0.60;99.90;;;;;;5093816;28;20206;-67
2021/03/21 00:30:31;;;;;;;37.92;25.05;;;0.60;99.90;;;;;;5093799;28;20490;-66
2021/03/21 00:32:56;;;;;;;36.70;24.23;;;0.60;99.90;;;;;;5093828;28;20257;-66
2021/03/21 00:35:23;;;;;;;38.70;24.80;;;0.50;99.90;;;;;;5093799;28;20165;-66
2021/03/21 00:37:49;;;;;;;34.78;23.70;;;0.50;99.90;;;;;;5092340;28;20220;-67
2021/03/21 00:40:18;;;;;;;41.23;26.20;;;0.40;99.90;;;;;;5093624;28;20172;-67
2021/03/21 00:42:44;;;;;;;32.55;24.50;;;0.40;99.90;;;;;;5096250;28;20255;-67
2021/03/21 00:45:12;;;;;;;34.38;24.08;;;0.40;99.90;;;;;;5097827;28;20168;-66
2021/03/21 00:47:38;;;;;;;39.40;25.40;;;0.30;99.90;;;;;;5097667;28;20168;-66
2021/03/21 00:50:07;;;;;;;35.45;23.67;;;0.40;99.90;;;;;;5097589;28;20165;-68
2021/03/21 00:52:33;;;;;;;36.50;23.35;;;0.30;99.90;;;;;;5097412;28;20200;-66
2021/03/21 00:54:58;;;;;;;38.70;24.00;;;0.30;99.90;;;;;;5096344;28;20199;-67
2021/03/21 00:57:24;;;;;;;39.93;24.90;;;0.30;99.90;;;;;;5098045;28;20253;-68
2021/03/21 00:59:49;;;;;;;34.20;24.10;;;0.30;99.90;;;;;;5096093;28;20193;-68
2021/03/21 01:02:15;;;;;;;40.17;23.50;;;0.20;99.90;;;;;;5097963;28;20613;-67
2021/03/21 01:04:41;;;;;;;37.07;24.27;;;0.30;99.90;;;;;;5096156;28;20561;-67
2021/03/21 01:07:06;;;;;;;39.50;24.77;;;0.20;99.90;;;;;;5097883;28;20197;-68
2021/03/21 01:09:32;;;;;;;36.60;24.73;;;0.20;99.90;;;;;;5097308;28;20266;-69
2021/03/21 01:11:58;;;;;;;36.33;25.40;;;0.30;99.90;;;;;;5097692;28;20184;-67
2021/03/21 01:14:23;;;;;;;37.83;24.00;;;0.20;99.90;;;;;;5096105;28;20612;-65
2021/03/21 01:16:50;;;;;;;37.30;24.60;;;0.20;99.90;;;;;;5097149;28;20169;-66
2021/03/21 01:19:21;;;;;;;37.20;24.58;;;0.20;99.90;;;;;;5097046;28;20560;-66
2021/03/21 01:21:48;;;;;;;42.17;26.52;;;0.10;99.90;;;;;;5095981;28;20270;-66
2021/03/21 01:24:20;;;;;;;38.17;25.10;;;0.10;99.90;;;;;;5096774;28;20228;-66
2021/03/21 01:26:47;;;;;;;36.08;24.40;;;0.10;99.90;;;;;;5097363;28;20173;-67
2021/03/21 01:29:13;;;;;;;35.92;22.88;;;0.00;99.90;;;;;;5097009;28;20204;-66
2021/03/21 01:31:38;;;;;;;35.00;23.53;;;0.00;99.90;;;;;;5097098;28;20176;-67
2021/03/21 01:34:05;;;;;;;32.50;23.07;;;0.00;99.90;;;;;;5096907;28;20189;-67
2021/03/21 01:36:33;;;;;;;35.83;24.45;;;0.00;99.90;;;;;;5095597;28;20188;-67
2021/03/21 01:39:07;;;;;;;35.60;23.90;;;-0.10;99.90;;;;;;5096734;28;20340;-66
2021/03/21 01:41:35;;;;;;;42.80;25.27;;;0.00;99.90;;;;;;5097148;28;20169;-66
2021/03/21 01:44:07;;;;;;;35.88;22.38;;;0.00;99.90;;;;;;5095185;28;20724;-67
2021/03/21 01:46:36;;;;;;;36.03;22.85;;;0.00;99.90;;;;;;5097030;28;20648;-66
2021/03/21 01:49:15;;;;;;;35.60;22.40;;;0.00;99.90;;;;;;5096510;28;20201;-67
2021/03/21 01:51:42;;;;;;;38.20;24.55;;;0.00;99.90;;;;;;5096992;28;20175;-65
2021/03/21 01:54:12;;;;;;;36.55;22.08;;;-0.10;99.90;;;;;;5094864;28;20192;-68
2021/03/21 01:56:39;;;;;;;39.55;23.92;;;-0.10;99.90;;;;;;5096795;28;20180;-66
2021/03/21 01:59:24;;;;;;;34.45;22.27;;;-0.10;99.90;;;;;;5096373;28;20232;-67
2021/03/21 02:01:51;;;;;;;31.38;21.40;;;0.00;99.90;;;;;;5096371;28;20683;-68
2021/03/21 02:04:17;;;;;;;35.80;23.08;;;-0.10;99.90;;;;;;5096170;28;20242;-66
2021/03/21 02:07:01;;;;;;;37.10;24.10;;;-0.10;99.90;;;;;;5096504;28;20181;-67
2021/03/21 02:09:48;;;;;;;36.38;22.52;;;-0.10;99.90;;;;;;5096143;28;20196;-66
2021/03/21 02:12:33;;;;;;;36.05;23.98;;;-0.20;99.90;;;;;;5095118;28;20192;-68
2021/03/21 02:15:12;;;;;;;35.92;22.85;;;-0.20;99.90;;;;;;5096065;28;20183;-66
2021/03/21 02:17:49;;;;;;;37.72;22.77;;;-0.20;99.90;;;;;;5096051;28;20255;-67
2021/03/21 02:20:52;;;;;;;39.05;23.55;;;-0.20;99.90;;;;;;5096000;28;20694;-68
2021/03/21 02:23:54;;;;;;;38.95;25.13;;;-0.30;99.90;;;;;;5095706;28;20220;-66
2021/03/21 02:26:54;;;;;;;45.90;26.77;;;-0.40;99.90;;;;;;5094743;28;20184;-66
2021/03/21 02:29:40;;;;;;;39.83;26.02;;;-0.50;99.90;;;;;;5095963;28;20563;-66
2021/03/21 02:32:20;;;;;;;45.88;28.67;;;-0.40;99.90;;;;;;5094621;28;20184;-68
2021/03/21 02:34:49;;;;;;;56.28;29.67;;;-0.50;99.90;;;;;;5095642;28;20723;-67
2021/03/21 02:37:32;;;;;;;45.95;26.80;;;-0.60;99.90;;;;;;5096079;28;20549;-68
2021/03/21 02:40:07;;;;;;;49.40;26.95;;;-0.70;99.90;;;;;;5095648;28;20186;-66
2021/03/21 02:42:38;;;;;;;42.78;26.70;;;-0.80;99.90;;;;;;5093931;28;20243;-67
2021/03/21 02:45:13;;;;;;;46.58;28.38;;;-0.80;99.90;;;;;;5095341;28;20189;-69
2021/03/21 02:47:41;;;;;;;41.78;26.50;;;-0.80;99.90;;;;;;5095462;28;20175;-66
2021/03/21 02:50:17;;;;;;;40.50;26.08;;;-0.70;99.90;;;;;;5095360;28;20180;-68
2021/03/21 02:52:48;;;;;;;41.95;25.02;;;-0.70;99.90;;;;;;5095348;28;20653;-66
2021/03/21 02:55:23;;;;;;;42.55;25.35;;;-0.60;99.90;;;;;;5095360;28;20191;-66
2021/03/21 02:58:04;;;;;;;40.35;24.15;;;-0.60;99.90;;;;;;5093808;28;20681;-68
2021/03/21 03:00:43;;;;;;;37.92;23.30;;;-0.70;99.90;;;;;;5095302;28;20237;-66
2021/03/21 03:03:11;;;;;;;34.90;23.70;;;-0.60;99.90;;;;;;5095248;28;20208;-67
2021/03/21 03:05:42;;;;;;;37.22;23.75;;;-0.80;99.90;;;;;;5094221;28;20176;-66
2021/03/21 03:08:17;;;;;;;37.33;23.38;;;-0.80;99.90;;;;;;5093739;28;20554;-66
2021/03/21 03:11:14;;;;;;;42.35;24.02;;;-0.80;99.90;;;;;;5095203;28;20707;-67
2021/03/21 03:13:50;;;;;;;36.33;24.30;;;-0.80;99.90;;;;;;5094927;28;20295;-66
2021/03/21 03:16:23;;;;;;;38.53;24.15;;;-0.80;99.90;;;;;;5095312;28;20183;-66
2021/03/21 03:19:04;;;;;;;30.05;22.08;;;-0.80;99.90;;;;;;5094708;28;20220;-66
2021/03/21 03:21:39;;;;;;;34.20;21.67;;;-0.80;99.90;;;;;;5095080;28;20181;-66
2021/03/21 03:24:34;;;;;;;36.78;24.30;;;-0.90;99.90;;;;;;5094655;28;20695;-67
2021/03/21 03:27:03;;;;;;;40.15;23.88;;;-0.90;99.90;;;;;;5091404;28;20192;-66
2021/03/21 03:29:38;;;;;;;34.15;23.73;;;-0.90;99.90;;;;;;5094485;28;20192;-67
2021/03/21 03:32:09;;;;;;;39.33;24.83;;;-0.90;99.90;;;;;;5095013;28;20215;-66
2021/03/21 03:34:35;;;;;;;35.45;21.83;;;-0.90;99.90;;;;;;5093243;28;20261;-66
2021/03/21 03:37:02;;;;;;;37.38;23.23;;;-0.90;99.90;;;;;;5094959;28;20527;-67
2021/03/21 03:39:28;;;;;;;34.97;24.00;;;-0.90;99.90;;;;;;5094273;28;20192;-66
2021/03/21 03:41:59;;;;;;;41.67;25.70;;;-0.90;99.90;;;;;;5094842;28;20176;-67
2021/03/21 03:45:02;;;;;;;35.53;23.95;;;-0.80;99.90;;;;;;5094159;28;20236;-68
2021/03/21 03:47:43;;;;;;;41.40;25.83;;;-0.90;99.90;;;;;;5062323;28;20192;-67
2021/03/21 03:50:40;;;;;;;39.97;24.45;;;-0.90;99.90;;;;;;5094227;28;20157;-66
2021/03/21 03:53:42;;;;;;;34.08;23.17;;;-0.90;99.90;;;;;;5092948;28;20200;-66
2021/03/21 03:56:16;;;;;;;38.85;22.75;;;-0.90;99.90;;;;;;5081142;28;20282;-67
2021/03/21 03:59:19;;;;;;;38.75;23.42;;;-1.00;99.90;;;;;;5094115;28;20320;-67
2021/03/21 04:02:06;;;;;;;36.20;24.00;;;-1.10;99.90;;;;;;5078545;28;20233;-67
2021/03/21 04:04:31;;;;;;;35.10;23.25;;;-1.00;99.90;;;;;;5093899;28;20215;-68
2021/03/21 04:07:25;;;;;;;40.57;24.47;;;-1.00;99.90;;;;;;5094477;28;20534;-68
2021/03/21 04:09:59;;;;;;;35.72;24.17;;;-1.00;99.90;;;;;;5094029;28;20216;-66
2021/03/21 04:12:33;;;;;;;36.60;24.08;;;-1.10;99.90;;;;;;5094532;28;20247;-67
2021/03/21 04:15:07;;;;;;;37.97;25.73;;;-1.10;99.90;;;;;;5094007;28;20173;-67
2021/03/21 04:17:51;;;;;;;34.60;23.65;;;-1.00;99.90;;;;;;5093811;28;20173;-66
2021/03/21 04:20:16;;;;;;;35.40;23.85;;;-1.10;99.90;;;;;;5093907;28;20642;-66
2021/03/21 04:22:55;;;;;;;40.93;24.90;;;-1.00;99.90;;;;;;5092424;28;20183;-66
2021/03/21 04:25:27;;;;;;;32.20;21.02;;;-1.00;99.90;;;;;;5092591;28;20765;-67
2021/03/21 04:28:08;;;;;;;33.53;23.23;;;-1.00;99.90;;;;;;5093730;28;20247;-67
2021/03/21 04:30:45;;;;;;;38.65;23.98;;;-1.00;99.90;;;;;;5093802;28;20561;-66
2021/03/21 04:33:16;;;;;;;37.45;23.55;;;-1.00;99.90;;;;;;5093637;28;20283;-66
2021/03/21 04:35:49;;;;;;;36.38;22.52;;;-1.00;99.90;;;;;;5093844;28;20630;-66
2021/03/21 04:38:23;;;;;;;34.05;23.50;;;-1.00;99.90;;;;;;5093633;28;20203;-67
2021/03/21 04:40:49;;;;;;;31.83;23.17;;;-1.10;99.90;;;;;;5093801;28;20176;-67
2021/03/21 04:43:27;;;;;;;35.65;23.75;;;-1.10;99.90;;;;;;5093391;28;20697;-66
2021/03/21 04:45:58;;;;;;;35.50;24.80;;;-1.10;99.90;;;;;;5093818;28;20184;-66
2021/03/21 04:48:25;;;;;;;35.88;23.05;;;-1.10;99.90;;;;;;5092281;28;20290;-66
2021/03/21 04:51:00;;;;;;;36.78;23.40;;;-1.10;99.90;;;;;;5092336;28;20187;-67
2021/03/21 04:53:38;;;;;;;43.80;26.35;;;-1.10;99.90;;;;;;5093694;28;20188;-67
2021/03/21 04:56:18;;;;;;;35.75;25.15;;;-1.10;99.90;;;;;;5093727;28;20181;-69
2021/03/21 04:58:48;;;;;;;38.08;25.25;;;-1.10;99.90;;;;;;5093402;28;20233;-68
2021/03/21 05:01:28;;;;;;;45.42;27.40;;;-1.20;99.90;;;;;;5093755;28;20514;-66
2021/03/21 05:04:16;;;;;;;50.33;29.27;;;-1.20;99.90;;;;;;5092013;28;20262;-66
2021/03/21 05:06:45;;;;;;;54.55;28.52;;;-1.20;99.90;;;;;;5092211;28;20183;-66
2021/03/21 05:09:31;;;;;;;48.95;28.75;;;-1.10;99.90;;;;;;5093412;28;20197;-66
2021/03/21 05:12:11;;;;;;;54.50;30.48;;;-1.20;99.90;;;;;;5093851;28;20629;-67
2021/03/21 05:14:57;;;;;;;45.60;28.50;;;-1.20;99.90;;;;;;5093343;28;20192;-66
2021/03/21 05:17:49;;;;;;;43.22;26.83;;;-1.20;99.90;;;;;;5093978;28;20172;-67
2021/03/21 05:20:29;;;;;;;40.38;25.83;;;-1.20;99.90;;;;;;5093356;28;20169;-69
2021/03/21 05:23:24;;;;;;;36.58;24.00;;;-1.10;99.90;;;;;;5093222;28;20653;-68
2021/03/21 05:26:05;;;;;;;38.63;23.20;;;-1.00;99.90;;;;;;5093425;28;20609;-68
2021/03/21 05:28:45;;;;;;;37.92;23.77;;;-0.90;99.90;;;;;;5095510;28;20560;-68
2021/03/21 05:31:11;;;;;;;35.55;24.13;;;-0.90;99.90;;;;;;5097232;28;20259;-67
2021/03/21 05:33:38;;;;;;;33.70;23.00;;;-0.90;99.90;;;;;;5096876;28;20589;-68
2021/03/21 05:36:20;;;;;;;34.20;23.00;;;-0.90;99.90;;;;;;5095456;28;20417;-67
2021/03/21 05:38:54;;;;;;;38.00;25.20;;;-0.80;99.90;;;;;;5095702;28;20247;-66
2021/03/21 05:41:46;;;;;;;36.95;24.67;;;-0.70;99.90;;;;;;5097093;28;20164;-68
2021/03/21 05:44:46;;;;;;;42.83;24.17;;;-0.70;99.90;;;;;;5096317;28;20331;-68
2021/03/21 05:47:36;;;;;;;40.65;24.67;;;-0.60;99.90;;;;;;5097242;28;20208;-66
2021/03/21 05:50:30;;;;;;;38.25;24.70;;;-0.50;99.90;;;;;;5096732;28;20192;-66
2021/03/21 05:53:20;;;;;;;33.50;22.98;;;-0.40;99.90;;;;;;5096664;28;20252;-68
2021/03/21 05:56:05;;;;;;;35.05;23.90;;;-0.30;99.90;;;;;;5096510;28;20172;-69
2021/03/21 05:58:36;;;;;;;36.10;24.27;;;-0.20;99.90;;;;;;5094976;28;20224;-67
2021/03/21 06:01:26;;;;;;;36.08;23.77;;;-0.10;99.90;;;;;;5096525;28;20580;-67
2021/03/21 06:04:10;;;;;;;36.30;23.67;;;0.00;99.90;;;;;;5096125;28;20220;-67
2021/03/21 06:06:41;;;;;;;38.38;23.80;;;0.10;99.90;;;;;;5096567;28;20523;-67
2021/03/21 06:09:07;;;;;;;34.63;23.17;;;0.20;99.90;;;;;;5096176;28;20240;-66
2021/03/21 06:12:10;;;;;;;37.30;23.67;;;0.30;99.90;;;;;;5096501;28;20208;-68
2021/03/21 06:14:57;;;;;;;35.17;25.60;;;0.30;99.90;;;;;;5095985;28;20207;-68
2021/03/21 06:17:44;;;;;;;35.03;23.65;;;0.50;99.90;;;;;;5094784;28;20180;-66
2021/03/21 06:20:13;;;;;;;41.33;25.40;;;0.50;99.90;;;;;;5094643;28;20188;-68
2021/03/21 06:23:02;;;;;;;33.33;23.95;;;0.60;99.90;;;;;;5095863;28;20173;-68
2021/03/21 06:25:51;;;;;;;32.00;22.95;;;0.70;99.90;;;;;;5095904;28;20227;-66
2021/03/21 06:28:56;;;;;;;35.75;23.80;;;0.80;99.90;;;;;;5094546;28;20234;-68
2021/03/21 06:31:41;;;;;;;34.13;24.33;;;1.00;99.90;;;;;;5089515;28;20200;-66
2021/03/21 06:34:12;;;;;;;35.25;22.30;;;1.00;99.90;;;;;;5094364;28;20277;-67
2021/03/21 06:37:07;;;;;;;37.25;23.92;;;1.10;99.90;;;;;;5095983;28;20247;-68
2021/03/21 06:39:51;;;;;;;32.53;23.33;;;1.20;99.90;;;;;;5092173;28;20211;-68
2021/03/21 06:42:41;;;;;;;34.53;23.52;;;1.20;99.90;;;;;;5095855;28;20173;-66
2021/03/21 06:45:30;;;;;;;34.40;23.80;;;1.30;99.90;;;;;;5094043;28;20220;-66
2021/03/21 06:48:23;;;;;;;36.40;24.08;;;1.30;99.90;;;;;;5094117;28;20205;-67
2021/03/21 06:50:57;;;;;;;33.13;23.48;;;1.40;99.90;;;;;;5095525;28;20219;-66
2021/03/21 06:53:33;;;;;;;35.92;24.35;;;1.50;99.90;;;;;;5095396;28;20200;-67
2021/03/21 06:56:07;;;;;;;34.10;23.02;;;1.70;99.90;;;;;;5095259;28;20203;-67
2021/03/21 06:58:52;;;;;;;36.70;26.05;;;1.80;99.90;;;;;;5095138;28;20201;-68
2021/03/21 07:01:28;;;;;;;34.45;25.55;;;1.90;99.90;;;;;;5095621;28;20186;-67
2021/03/21 07:04:31;;;;;;;34.03;23.90;;;2.00;99.90;;;;;;5095094;28;20254;-66
2021/03/21 07:07:15;;;;;;;37.83;23.23;;;2.00;99.90;;;;;;5095617;28;20629;-66
2021/03/21 07:10:07;;;;;;;32.40;24.60;;;2.10;99.90;;;;;;5094963;28;20240;-67
2021/03/21 07:12:56;;;;;;;36.88;23.50;;;2.30;99.90;;;;;;5093616;28;20180;-68
2021/03/21 07:15:59;;;;;;;31.98;23.38;;;2.40;99.90;;;;;;5095060;28;20168;-66
2021/03/21 07:18:40;;;;;;;34.03;21.88;;;2.60;99.90;;;;;;5094778;28;20730;-66
2021/03/21 07:21:34;;;;;;;31.95;22.85;;;2.70;99.90;;;;;;5093550;28;20168;-68
2021/03/21 07:24:29;;;;;;;29.73;20.85;;;2.80;99.90;;;;;;5093261;28;20298;-67
2021/03/21 07:27:05;;;;;;;28.27;21.80;;;3.00;99.90;;;;;;5095083;28;20169;-67
2021/03/21 07:29:50;;;;;;;31.23;21.60;;;3.10;99.90;;;;;;5094572;28;20204;-67
2021/03/21 07:32:39;;;;;;;32.13;22.00;;;3.20;99.90;;;;;;5095222;28;20652;-66
2021/03/21 07:35:45;;;;;;;31.88;23.83;;;3.40;99.90;;;;;;5088776;28;20238;-67
2021/03/21 07:38:30;;;;;;;27.23;19.70;;;3.50;99.90;;;;;;5093139;28;20286;-68
2021/03/21 07:41:22;;;;;;;29.60;21.35;;;3.70;99.90;;;;;;5094760;28;20622;-67
2021/03/21 07:43:47;;;;;;;30.10;20.77;;;3.90;99.90;;;;;;5072661;28;20236;-68
2021/03/21 07:46:23;;;;;;;29.70;21.83;;;3.90;99.90;;;;;;5093203;28;20184;-66
2021/03/21 07:49:30;;;;;;;31.02;21.40;;;4.00;99.90;;;;;;5094205;28;20235;-68
2021/03/21 07:52:13;;;;;;;29.65;22.13;;;4.20;99.90;;;;;;5094445;28;20172;-67
2021/03/21 07:54:52;;;;;;;33.75;21.85;;;4.20;99.90;;;;;;5094115;28;20200;-68
2021/03/21 07:57:32;;;;;;;31.42;22.90;;;4.30;99.90;;;;;;5094760;28;20204;-67
2021/03/21 08:00:00;;;;;;;33.17;25.88;;;4.50;99.90;;;;;;5092823;28;20188;-67
2021/03/21 08:02:27;;;;;;;31.00;23.60;;;4.40;99.90;;;;;;5094508;28;20259;-68
2021/03/21 08:05:08;;;;;;;32.60;23.98;;;4.50;99.90;;;;;;5093848;28;20261;-68
2021/03/21 08:07:36;;;;;;;31.25;22.70;;;4.60;99.90;;;;;;5094066;28;20194;-66
2021/03/21 08:10:34;;;;;;;33.97;26.27;;;4.70;99.90;;;;;;5094057;28;20176;-66
2021/03/21 08:13:16;;;;;;;30.10;22.77;;;4.80;99.90;;;;;;5093895;28;20673;-67
2021/03/21 08:15:43;;;;;;;33.70;22.65;;;5.10;99.90;;;;;;5094085;28;20179;-66
2021/03/21 08:18:17;;;;;;;32.72;23.30;;;5.20;99.90;;;;;;5093821;28;20611;-67
2021/03/21 08:20:52;;;;;;;30.50;23.10;;;5.30;99.90;;;;;;5092629;28;20180;-68
2021/03/21 08:23:31;;;;;;;33.83;26.27;;;5.40;99.90;;;;;;5092520;28;20585;-68
2021/03/21 08:26:00;;;;;;;32.53;22.92;;;5.60;99.90;;;;;;5093935;28;20210;-68
2021/03/21 08:28:35;;;;;;;37.60;28.67;;;6.10;99.90;;;;;;5093746;28;20192;-68
2021/03/21 08:31:07;;;;;;;27.42;22.13;;;6.70;99.90;;;;;;5092623;28;20625;-68
2021/03/21 08:33:40;;;;;;;27.45;21.08;;;7.20;99.90;;;;;;5093606;28;20682;-69
2021/03/21 08:36:25;;;;;;;32.25;20.90;;;7.60;97.20;;;;;;5093970;28;20210;-67
2021/03/21 08:38:55;;;;;;;27.52;24.45;;;8.20;97.80;;;;;;5093681;28;20603;-68
2021/03/21 08:41:22;;;;;;;42.60;32.67;;;8.60;94.60;;;;;;5094027;28;20172;-68
2021/03/21 08:44:01;;;;;;;40.97;32.70;;;9.20;92.40;;;;;;5093251;28;20888;-67
2021/03/21 08:46:28;;;;;;;34.30;22.60;;;9.40;89.50;;;;;;5093983;28;20558;-68
2021/03/21 08:49:15;;;;;;;25.98;23.25;;;9.90;89.90;;;;;;5093556;28;20220;-68
2021/03/21 08:51:42;;;;;;;23.40;20.92;;;10.10;81.60;;;;;;5093964;28;20575;-68
2021/03/21 08:54:29;;;;;;;22.98;20.17;;;10.40;82.60;;;;;;5093504;28;20677;-69
2021/03/21 08:57:26;;;;;;;24.83;20.58;;;10.30;81.60;;;;;;5093984;28;20169;-68
2021/03/21 08:59:52;;;;;;;24.43;21.23;;;10.70;79.00;;;;;;5093401;28;20200;-69
2021/03/21 09:02:19;;;;;;;23.17;20.77;;;11.30;77.30;;;;;;5094348;28;20511;-68
2021/03/21 09:05:01;;;;;;;24.07;21.47;;;11.00;74.40;;;;;;5097256;28;20298;-68
2021/03/21 09:07:33;;;;;;;22.87;20.00;;;11.10;75.50;;;;;;5097883;28;20796;-68
2021/03/21 09:10:10;;;;;;;24.20;19.50;;;11.40;75.30;;;;;;5097495;28;20420;-68
2021/03/21 09:12:39;;;;;;;22.87;20.50;;;11.10;72.80;;;;;;5097214;28;20910;-68
2021/03/21 09:15:17;;;;;;;22.73;19.97;;;11.30;72.60;;;;;;5097207;28;20416;-68
2021/03/21 09:18:16;;;;;;;21.90;19.80;;;10.80;70.90;;;;;;5097040;28;20401;-69
2021/03/21 09:20:49;;;;;;;23.80;21.30;;;10.90;71.60;;;;;;5097078;28;20756;-68
2021/03/21 09:23:46;;;;;;;24.10;20.10;;;10.80;73.10;;;;;;5095614;28;20488;-68
2021/03/21 09:26:12;;;;;;;22.70;20.40;;;10.90;73.00;;;;;;5096611;28;20432;-67
2021/03/21 09:28:40;;;;;;;23.97;21.40;;;10.60;72.40;;;;;;5096973;28;20433;-68
2021/03/21 09:31:10;;;;;;;22.83;20.43;;;11.10;75.00;;;;;;5097082;28;20222;-69
2021/03/21 09:33:46;;;;;;;22.27;19.87;;;11.70;71.90;;;;;;5096870;28;20428;-68
2021/03/21 09:36:21;;;;;;;21.07;18.87;;;11.40;69.40;;;;;;5097077;28;20412;-70
2021/03/21 09:38:55;;;;;;;21.10;18.67;;;11.90;71.20;;;;;;5095463;28;20515;-68
2021/03/21 09:41:21;;;;;;;25.20;22.47;;;11.90;70.50;;;;;;5097172;28;20424;-69
2021/03/21 09:43:48;;;;;;;20.43;18.33;;;11.90;68.00;;;;;;5096344;28;20521;-69
2021/03/21 09:47:03;;;;;;;24.87;22.37;;;12.00;70.60;;;;;;5096892;28;20462;-68
2021/03/21 09:49:45;;;;;;;22.00;19.70;;;11.70;69.70;;;;;;5078992;28;20441;-68
2021/03/21 09:52:36;;;;;;;19.60;17.70;;;11.70;67.30;;;;;;5097083;28;20793;-69
2021/03/21 09:55:18;;;;;;;18.37;16.50;;;11.60;68.70;;;;;;5096647;28;20409;-68
2021/03/21 09:58:17;;;;;;;20.60;18.50;;;11.50;69.20;;;;;;5096482;28;20953;-68
2021/03/21 10:01:00;;;;;;;19.80;17.70;;;11.10;66.60;;;;;;5096545;28;20428;-69
2021/03/21 10:03:27;;;;;;;20.77;18.57;;;11.00;68.10;;;;;;5096227;28;20543;-69
2021/03/21 10:06:04;;;;;;;19.53;17.60;;;11.00;66.20;;;;;;5096157;28;20803;-68
2021/03/21 10:08:56;;;;;;;24.10;20.33;;;11.20;70.20;;;;;;5094917;28;20985;-67
2021/03/21 10:11:32;;;;;;;19.63;17.47;;;10.90;68.10;;;;;;5096436;28;20490;-68
2021/03/21 10:14:02;;;;;;;22.03;19.73;;;10.80;69.60;;;;;;5096080;28;20452;-68
2021/03/21 10:16:27;;;;;;;19.77;17.73;;;10.40;70.10;;;;;;5096420;28;20409;-69
2021/03/21 10:18:57;;;;;;;20.93;18.70;;;10.60;71.10;;;;;;5096007;28;20450;-68
2021/03/21 10:21:22;;;;;;;20.10;18.00;;;10.90;70.50;;;;;;5095910;28;20173;-68
2021/03/21 10:23:51;;;;;;;20.23;18.10;;;11.00;70.50;;;;;;5094457;28;20613;-69
2021/03/21 10:26:20;;;;;;;19.10;17.10;;;11.10;69.80;;;;;;5096251;28;20665;-68
2021/03/21 10:28:49;;;;;;;20.80;18.70;;;11.20;71.80;;;;;;5095770;28;20433;-68
2021/03/21 10:31:22;;;;;;;22.00;19.23;;;10.80;68.00;;;;;;5096039;28;20424;-68
2021/03/21 10:33:55;;;;;;;18.27;16.30;;;10.40;65.80;;;;;;5094508;28;20827;-68
2021/03/21 10:36:42;;;;;;;18.00;16.20;;;10.00;68.90;;;;;;5095578;28;20554;-67
2021/03/21 10:39:23;;;;;;;18.80;16.77;;;10.50;71.20;;;;;;5095562;28;20523;-67
2021/03/21 10:41:52;;;;;;;21.30;17.53;;;10.10;69.00;;;;;;5095903;28;20424;-69
2021/03/21 10:44:20;;;;;;;19.00;17.00;;;10.50;68.30;;;;;;5095344;28;20843;-67
2021/03/21 10:46:49;;;;;;;21.00;18.70;;;10.10;72.20;;;;;;5094304;28;20421;-69
2021/03/21 10:49:53;;;;;;;19.33;17.23;;;10.30;69.10;;;;;;5095491;28;20966;-68
2021/03/21 10:52:39;;;;;;;20.43;17.60;;;10.20;67.80;;;;;;5094108;28;20425;-67
2021/03/21 10:55:15;;;;;;;20.37;17.00;;;9.80;69.80;;;;;;5095230;28;20397;-67
2021/03/21 10:57:51;;;;;;;21.57;18.10;;;9.50;69.00;;;;;;5095266;28;20413;-67
2021/03/21 11:00:33;;;;;;;20.93;17.67;;;10.20;71.60;;;;;;5093925;28;20432;-68
2021/03/21 11:03:01;;;;;;;19.83;16.97;;;10.40;68.50;;;;;;5095118;28;20990;-68
2021/03/21 11:05:32;;;;;;;22.63;19.00;;;10.20;68.20;;;;;;5093891;28;20421;-68
2021/03/21 11:08:18;;;;;;;22.15;18.25;;;10.30;70.00;;;;;;5095066;28;20192;-67
2021/03/21 11:10:51;;;;;;;20.10;17.37;;;10.50;70.00;;;;;;5095133;28;20701;-69
2021/03/21 11:13:32;;;;;;;22.40;17.50;;;10.80;71.20;;;;;;5094901;28;20433;-68
2021/03/21 11:15:59;;;;;;;18.90;16.70;;;10.60;70.50;;;;;;5095167;28;20820;-67
2021/03/21 11:18:28;;;;;;;20.23;17.55;;;10.40;69.10;;;;;;5094853;28;20421;-67
2021/03/21 11:21:07;;;;;;;20.52;18.35;;;10.40;69.60;;;;;;5095130;28;20755;-67
2021/03/21 11:23:55;;;;;;;18.20;16.30;;;10.40;67.80;;;;;;5094635;28;20204;-69
2021/03/21 11:26:36;;;;;;;18.50;16.45;;;10.70;66.80;;;;;;5094706;28;20251;-68
2021/03/21 11:29:01;;;;;;;20.57;18.40;;;11.00;66.90;;;;;;5094797;28;20204;-68
2021/03/21 11:31:30;;;;;;;21.10;18.23;;;10.90;65.10;;;;;;5094954;28;20508;-69
2021/03/21 11:33:56;;;;;;;18.75;16.75;;;10.90;67.10;;;;;;5094584;28;20275;-67
2021/03/21 11:36:27;;;;;;;19.20;17.20;;;11.10;65.50;;;;;;5093307;28;20590;-67
2021/03/21 11:38:55;;;;;;;23.53;21.00;;;11.10;64.70;;;;;;5094407;28;20283;-68
2021/03/21 11:41:29;;;;;;;26.43;20.40;;;10.80;65.60;;;;;;5094789;28;20412;-68
2021/03/21 11:44:15;;;;;;;20.40;16.77;;;11.00;64.60;;;;;;5093013;28;20495;-67
2021/03/21 11:46:40;;;;;;;58.37;44.63;;;10.70;64.90;;;;;;5094774;28;20520;-68
2021/03/21 11:49:07;;;;;;;20.83;18.60;;;10.80;65.90;;;;;;5094269;28;20897;-67
2021/03/21 11:51:33;;;;;;;18.87;15.53;;;11.20;67.30;;;;;;5094589;28;20260;-69
2021/03/21 11:54:00;;;;;;;20.63;16.17;;;11.20;63.90;;;;;;5094255;28;20425;-68
2021/03/21 11:57:01;;;;;;;17.57;15.67;;;11.30;62.10;;;;;;5094497;28;20417;-69
2021/03/21 11:59:49;;;;;;;19.47;15.50;;;11.00;63.90;;;;;;5085238;28;20901;-68
2021/03/21 12:02:45;;;;;;;20.73;18.53;;;10.70;63.70;;;;;;5094257;28;20440;-68
2021/03/21 12:05:19;;;;;;;18.07;16.27;;;10.80;64.60;;;;;;5094077;28;20457;-68
2021/03/21 12:07:45;;;;;;;17.93;16.00;;;10.70;62.60;;;;;;5092333;28;20818;-67
2021/03/21 12:10:31;;;;;;;17.45;15.60;;;10.60;61.30;;;;;;5092652;28;20420;-67
2021/03/21 12:12:57;;;;;;;17.60;15.80;;;10.00;60.40;;;;;;5093911;28;20192;-68
2021/03/21 12:15:22;;;;;;;23.47;21.07;;;9.80;61.60;;;;;;5094052;28;20256;-67
2021/03/21 12:17:48;;;;;;;17.63;15.83;;;9.60;64.60;;;;;;5093841;28;20447;-68
2021/03/21 12:20:42;;;;;;;18.60;14.50;;;10.00;64.50;;;;;;5093879;28;20172;-68
2021/03/21 12:23:23;;;;;;;16.40;14.40;;;10.70;63.60;;;;;;5092474;28;20796;-67
2021/03/21 12:26:12;;;;;;;16.75;14.48;;;10.80;64.20;;;;;;5094003;28;20230;-67
2021/03/21 12:28:51;;;;;;;18.33;13.20;;;11.10;61.10;;;;;;5093811;28;20283;-69
2021/03/21 12:31:31;;;;;;;12.85;11.52;;;11.00;60.20;;;;;;5094056;28;20417;-68
2021/03/21 12:33:59;;;;;;;14.57;11.93;;;11.00;59.10;;;;;;5093767;28;20207;-69
2021/03/21 12:36:28;;;;;;;13.93;12.45;;;10.90;58.70;;;;;;5093977;28;20172;-67
2021/03/21 12:38:58;;;;;;;16.03;13.63;;;11.10;58.30;;;;;;5096715;28;20570;-69
2021/03/21 12:41:39;;;;;;;14.95;13.45;;;11.00;57.80;;;;;;5098295;28;20791;-68
2021/03/21 12:44:09;;;;;;;15.93;14.30;;;10.90;59.30;;;;;;5096319;28;20232;-67
2021/03/21 12:46:43;;;;;;;14.23;12.73;;;10.90;59.60;;;;;;5098214;28;20576;-67
2021/03/21 12:49:30;;;;;;;15.30;13.43;;;10.90;59.90;;;;;;5097729;28;20196;-68
2021/03/21 12:51:59;;;;;;;16.03;14.33;;;10.50;57.80;;;;;;5096763;28;20176;-68
2021/03/21 12:54:27;;;;;;;15.00;13.13;;;10.80;60.60;;;;;;5097663;28;20432;-67
2021/03/21 12:56:53;;;;;;;15.43;13.20;;;10.40;58.50;;;;;;5096617;28;20183;-66
2021/03/21 12:59:18;;;;;;;14.17;12.53;;;10.60;61.80;;;;;;5097538;28;20200;-68
2021/03/21 13:01:46;;;;;;;14.93;12.50;;;10.60;60.20;;;;;;5097939;28;20176;-67
2021/03/21 13:04:11;;;;;;;14.88;12.88;;;10.50;60.50;;;;;;5096207;28;20228;-68
2021/03/21 13:06:38;;;;;;;15.63;13.33;;;10.40;58.50;;;;;;5097281;28;20171;-67
2021/03/21 13:09:05;;;;;;;15.75;14.00;;;10.60;58.00;;;;;;5097347;28;20538;-67
2021/03/21 13:11:30;;;;;;;16.00;12.98;;;10.70;60.80;;;;;;5097705;28;20626;-66
2021/03/21 13:13:56;;;;;;;13.70;12.27;;;11.20;63.80;;;;;;5097256;28;20289;-69
2021/03/21 13:16:24;;;;;;;17.60;13.17;;;11.60;59.90;;;;;;5096151;28;20246;-67
2021/03/21 13:18:50;;;;;;;15.87;12.97;;;12.00;59.90;;;;;;5095843;28;20200;-68